Crutchfield, Kentucky
Current Conditions -  °F | °C
As of 7:15 PM on Friday 28 Nov 2014 (Local Time) from KUCY Reporting Station
Clear Clear  
Wind Chill: 37°   Ceiling: Unl
Heat Index: 43°   Visibility: 10mi
Dew Point: 27°   Wind: 12mph
Humidity: 53%   Direction: 180°S
Pressure: 30.07"   Gusts: NA
Location:  36.5506°N, 88.9261°W
Report Text: KUCY 290115Z AUTO 18010KT 10SM CLR 06/M03 A3007 RMK
Loading
Personal Weather Stations






























Interactive Weather Map New forecast layout! Learn more

10-Day Weather Forecast

Advertisements
Track Severe Weather on mobile